sensor_id;sensor_type;location;lat;lon;timestamp;temperature;humidity
68804;SHT31;55787;52.678;13.314;2023-05-10T00:01:45;10.85;63.37
68804;SHT31;55787;52.678;13.314;2023-05-10T00:04:12;10.79;63.67
68804;SHT31;55787;52.678;13.314;2023-05-10T00:06:39;10.79;63.55
68804;SHT31;55787;52.678;13.314;2023-05-10T00:09:06;10.76;63.84
68804;SHT31;55787;52.678;13.314;2023-05-10T00:11:33;10.86;63.58
68804;SHT31;55787;52.678;13.314;2023-05-10T00:14:00;10.69;64.26
68804;SHT31;55787;52.678;13.314;2023-05-10T00:16:26;10.54;64.84
68804;SHT31;55787;52.678;13.314;2023-05-10T00:18:53;10.52;64.84
68804;SHT31;55787;52.678;13.314;2023-05-10T00:21:20;10.46;65.18
68804;SHT31;55787;52.678;13.314;2023-05-10T00:23:46;10.55;65.10
68804;SHT31;55787;52.678;13.314;2023-05-10T00:26:13;10.48;65.17
68804;SHT31;55787;52.678;13.314;2023-05-10T00:28:40;10.56;65.02
68804;SHT31;55787;52.678;13.314;2023-05-10T00:31:06;10.54;65.25
68804;SHT31;55787;52.678;13.314;2023-05-10T00:33:33;10.59;65.26
68804;SHT31;55787;52.678;13.314;2023-05-10T00:35:59;10.56;65.17
68804;SHT31;55787;52.678;13.314;2023-05-10T00:38:26;10.52;65.36
68804;SHT31;55787;52.678;13.314;2023-05-10T00:40:53;10.46;65.63
68804;SHT31;55787;52.678;13.314;2023-05-10T00:43:20;10.45;65.79
68804;SHT31;55787;52.678;13.314;2023-05-10T00:45:46;10.37;66.09
68804;SHT31;55787;52.678;13.314;2023-05-10T00:48:13;10.34;66.17
68804;SHT31;55787;52.678;13.314;2023-05-10T00:50:41;10.32;66.12
68804;SHT31;55787;52.678;13.314;2023-05-10T00:53:08;10.34;66.54
68804;SHT31;55787;52.678;13.314;2023-05-10T00:55:35;10.37;66.30
68804;SHT31;55787;52.678;13.314;2023-05-10T00:58:02;10.34;66.36
68804;SHT31;55787;52.678;13.314;2023-05-10T01:00:29;10.32;66.44
68804;SHT31;55787;52.678;13.314;2023-05-10T01:02:56;10.34;66.33
68804;SHT31;55787;52.678;13.314;2023-05-10T01:05:23;10.34;66.55
68804;SHT31;55787;52.678;13.314;2023-05-10T01:07:50;10.27;66.78
68804;SHT31;55787;52.678;13.314;2023-05-10T01:10:17;10.21;67.19
68804;SHT31;55787;52.678;13.314;2023-05-10T01:12:46;10.10;67.48
68804;SHT31;55787;52.678;13.314;2023-05-10T01:15:14;10.11;67.40
68804;SHT31;55787;52.678;13.314;2023-05-10T01:17:43;10.18;67.38
68804;SHT31;55787;52.678;13.314;2023-05-10T01:20:11;10.18;67.32
68804;SHT31;55787;52.678;13.314;2023-05-10T01:33:14;9.91;68.33
68804;SHT31;55787;52.678;13.314;2023-05-10T01:35:50;9.86;68.92
68804;SHT31;55787;52.678;13.314;2023-05-10T01:38:29;9.74;69.51
68804;SHT31;55787;52.678;13.314;2023-05-10T01:43:50;9.74;69.59
68804;SHT31;55787;52.678;13.314;2023-05-10T01:46:27;9.62;69.84
68804;SHT31;55787;52.678;13.314;2023-05-10T01:48:55;9.64;69.85
68804;SHT31;55787;52.678;13.314;2023-05-10T01:51:27;9.63;69.96
68804;SHT31;55787;52.678;13.314;2023-05-10T01:53:58;9.55;70.25
68804;SHT31;55787;52.678;13.314;2023-05-10T01:56:28;9.73;69.43
68804;SHT31;55787;52.678;13.314;2023-05-10T01:58:56;9.67;69.82
68804;SHT31;55787;52.678;13.314;2023-05-10T02:01:25;9.63;69.94
68804;SHT31;55787;52.678;13.314;2023-05-10T02:03:53;9.67;70.33
68804;SHT31;55787;52.678;13.314;2023-05-10T02:06:22;9.59;70.05
68804;SHT31;55787;52.678;13.314;2023-05-10T02:08:51;9.53;70.31
68804;SHT31;55787;52.678;13.314;2023-05-10T02:11:19;9.46;71.10
68804;SHT31;55787;52.678;13.314;2023-05-10T02:13:48;9.46;70.49
68804;SHT31;55787;52.678;13.314;2023-05-10T02:16:16;9.56;70.17
68804;SHT31;55787;52.678;13.314;2023-05-10T02:18:48;9.53;70.04
68804;SHT31;55787;52.678;13.314;2023-05-10T02:21:15;9.55;70.09
68804;SHT31;55787;52.678;13.314;2023-05-10T02:23:43;9.64;69.78
68804;SHT31;55787;52.678;13.314;2023-05-10T02:26:12;9.53;70.16
68804;SHT31;55787;52.678;13.314;2023-05-10T02:28:40;9.49;70.33
68804;SHT31;55787;52.678;13.314;2023-05-10T02:31:08;9.55;69.96
68804;SHT31;55787;52.678;13.314;2023-05-10T02:33:38;9.52;70.08
68804;SHT31;55787;52.678;13.314;2023-05-10T02:36:07;9.46;70.19
68804;SHT31;55787;52.678;13.314;2023-05-10T02:38:36;9.49;70.03
68804;SHT31;55787;52.678;13.314;2023-05-10T02:41:04;9.52;69.98
68804;SHT31;55787;52.678;13.314;2023-05-10T02:43:33;9.50;69.73
68804;SHT31;55787;52.678;13.314;2023-05-10T02:46:00;9.49;69.80
68804;SHT31;55787;52.678;13.314;2023-05-10T02:48:27;9.38;70.21
68804;SHT31;55787;52.678;13.314;2023-05-10T02:50:56;9.32;70.54
68804;SHT31;55787;52.678;13.314;2023-05-10T02:53:31;9.40;69.92
68804;SHT31;55787;52.678;13.314;2023-05-10T02:56:01;9.28;70.76
68804;SHT31;55787;52.678;13.314;2023-05-10T02:58:30;9.25;70.57
68804;SHT31;55787;52.678;13.314;2023-05-10T03:00:57;9.25;70.48
68804;SHT31;55787;52.678;13.314;2023-05-10T03:03:23;9.22;70.73
68804;SHT31;55787;52.678;13.314;2023-05-10T03:05:50;9.31;70.17
68804;SHT31;55787;52.678;13.314;2023-05-10T03:08:16;9.21;70.92
68804;SHT31;55787;52.678;13.314;2023-05-10T03:10:54;9.21;70.92
68804;SHT31;55787;52.678;13.314;2023-05-10T03:13:31;9.25;70.49
68804;SHT31;55787;52.678;13.314;2023-05-10T03:16:12;9.26;70.28
68804;SHT31;55787;52.678;13.314;2023-05-10T03:18:47;9.32;69.85
68804;SHT31;55787;52.678;13.314;2023-05-10T03:21:18;9.25;70.31
68804;SHT31;55787;52.678;13.314;2023-05-10T03:23:51;9.24;70.43
68804;SHT31;55787;52.678;13.314;2023-05-10T03:26:29;9.18;70.37
68804;SHT31;55787;52.678;13.314;2023-05-10T03:28:57;9.18;70.51
68804;SHT31;55787;52.678;13.314;2023-05-10T03:31:25;9.12;70.52
68804;SHT31;55787;52.678;13.314;2023-05-10T03:33:52;9.11;70.74
68804;SHT31;55787;52.678;13.314;2023-05-10T03:36:19;9.12;71.00
68804;SHT31;55787;52.678;13.314;2023-05-10T03:38:45;9.00;71.14
68804;SHT31;55787;52.678;13.314;2023-05-10T03:41:12;8.94;71.57
68804;SHT31;55787;52.678;13.314;2023-05-10T03:43:39;8.81;71.92
68804;SHT31;55787;52.678;13.314;2023-05-10T03:46:06;8.85;71.89
68804;SHT31;55787;52.678;13.314;2023-05-10T03:48:32;9.00;71.12
68804;SHT31;55787;52.678;13.314;2023-05-10T03:50:59;9.01;71.10
68804;SHT31;55787;52.678;13.314;2023-05-10T03:53:26;9.02;71.16
68804;SHT31;55787;52.678;13.314;2023-05-10T03:55:53;8.98;71.11
68804;SHT31;55787;52.678;13.314;2023-05-10T03:58:19;8.94;71.23
68804;SHT31;55787;52.678;13.314;2023-05-10T04:00:46;8.92;71.56
68804;SHT31;55787;52.678;13.314;2023-05-10T04:03:13;9.04;71.14
68804;SHT31;55787;52.678;13.314;2023-05-10T04:05:40;9.04;71.35
68804;SHT31;55787;52.678;13.314;2023-05-10T04:08:06;9.21;70.30
68804;SHT31;55787;52.678;13.314;2023-05-10T04:10:33;9.12;71.01
68804;SHT31;55787;52.678;13.314;2023-05-10T04:13:00;9.15;70.81
68804;SHT31;55787;52.678;13.314;2023-05-10T04:15:27;9.15;70.64
68804;SHT31;55787;52.678;13.314;2023-05-10T04:17:54;9.28;70.15
68804;SHT31;55787;52.678;13.314;2023-05-10T04:20:20;9.42;69.62
68804;SHT31;55787;52.678;13.314;2023-05-10T04:22:50;9.47;69.33
68804;SHT31;55787;52.678;13.314;2023-05-10T04:25:17;9.49;69.43
68804;SHT31;55787;52.678;13.314;2023-05-10T04:27:43;9.63;68.80
68804;SHT31;55787;52.678;13.314;2023-05-10T04:30:10;9.62;69.09
68804;SHT31;55787;52.678;13.314;2023-05-10T04:32:37;9.73;68.68
68804;SHT31;55787;52.678;13.314;2023-05-10T04:35:04;9.86;68.03
68804;SHT31;55787;52.678;13.314;2023-05-10T04:37:31;9.87;68.26
68804;SHT31;55787;52.678;13.314;2023-05-10T04:39:58;10.01;67.54
68804;SHT31;55787;52.678;13.314;2023-05-10T04:42:26;9.98;67.76
68804;SHT31;55787;52.678;13.314;2023-05-10T04:44:52;10.13;67.28
68804;SHT31;55787;52.678;13.314;2023-05-10T04:47:19;10.21;67.04
68804;SHT31;55787;52.678;13.314;2023-05-10T04:49:46;10.30;66.85
68804;SHT31;55787;52.678;13.314;2023-05-10T04:52:12;10.34;66.79
68804;SHT31;55787;52.678;13.314;2023-05-10T04:54:40;10.44;66.56
68804;SHT31;55787;52.678;13.314;2023-05-10T04:57:06;10.48;66.48
68804;SHT31;55787;52.678;13.314;2023-05-10T04:59:35;10.61;65.90
68804;SHT31;55787;52.678;13.314;2023-05-10T05:02:02;10.77;65.51
68804;SHT31;55787;52.678;13.314;2023-05-10T05:04:30;10.77;65.56
68804;SHT31;55787;52.678;13.314;2023-05-10T05:06:57;10.92;65.16
68804;SHT31;55787;52.678;13.314;2023-05-10T05:09:23;11.04;64.60
68804;SHT31;55787;52.678;13.314;2023-05-10T05:11:50;11.09;64.48
68804;SHT31;55787;52.678;13.314;2023-05-10T05:14:17;11.23;64.13
68804;SHT31;55787;52.678;13.314;2023-05-10T05:16:43;11.34;64.28
68804;SHT31;55787;52.678;13.314;2023-05-10T05:19:10;11.44;64.10
68804;SHT31;55787;52.678;13.314;2023-05-10T05:21:37;11.54;63.29
68804;SHT31;55787;52.678;13.314;2023-05-10T05:24:04;11.68;62.56
68804;SHT31;55787;52.678;13.314;2023-05-10T05:26:31;11.81;62.49
68804;SHT31;55787;52.678;13.314;2023-05-10T05:28:57;11.95;62.22
68804;SHT31;55787;52.678;13.314;2023-05-10T05:31:24;12.09;62.32
68804;SHT31;55787;52.678;13.314;2023-05-10T05:33:51;12.25;61.95
68804;SHT31;55787;52.678;13.314;2023-05-10T05:36:18;12.43;61.24
68804;SHT31;55787;52.678;13.314;2023-05-10T05:38:44;12.57;60.69
68804;SHT31;55787;52.678;13.314;2023-05-10T05:41:11;12.64;60.71
68804;SHT31;55787;52.678;13.314;2023-05-10T05:43:38;12.73;60.18
68804;SHT31;55787;52.678;13.314;2023-05-10T05:46:05;12.94;59.80
68804;SHT31;55787;52.678;13.314;2023-05-10T05:48:32;13.11;58.76
68804;SHT31;55787;52.678;13.314;2023-05-10T05:50:58;13.56;57.90
68804;SHT31;55787;52.678;13.314;2023-05-10T05:53:25;15.02;54.32
68804;SHT31;55787;52.678;13.314;2023-05-10T05:55:57;16.77;49.68
68804;SHT31;55787;52.678;13.314;2023-05-10T05:58:25;17.49;47.00
68804;SHT31;55787;52.678;13.314;2023-05-10T06:00:52;18.27;45.45
68804;SHT31;55787;52.678;13.314;2023-05-10T06:03:19;18.54;44.20
68804;SHT31;55787;52.678;13.314;2023-05-10T06:05:46;19.46;43.15
68804;SHT31;55787;52.678;13.314;2023-05-10T06:08:13;19.27;43.15
68804;SHT31;55787;52.678;13.314;2023-05-10T06:10:39;19.49;42.25
68804;SHT31;55787;52.678;13.314;2023-05-10T06:13:06;20.19;41.24
68804;SHT31;55787;52.678;13.314;2023-05-10T06:15:33;19.43;42.73
68804;SHT31;55787;52.678;13.314;2023-05-10T06:18:00;19.88;41.26
68804;SHT31;55787;52.678;13.314;2023-05-10T06:20:26;19.85;42.13
68804;SHT31;55787;52.678;13.314;2023-05-10T06:22:53;19.56;41.61
68804;SHT31;55787;52.678;13.314;2023-05-10T06:25:20;19.77;41.99
68804;SHT31;55787;52.678;13.314;2023-05-10T06:27:47;20.65;40.26
68804;SHT31;55787;52.678;13.314;2023-05-10T06:30:19;20.35;40.66
68804;SHT31;55787;52.678;13.314;2023-05-10T06:32:46;20.35;39.94
68804;SHT31;55787;52.678;13.314;2023-05-10T06:35:14;19.88;40.60
68804;SHT31;55787;52.678;13.314;2023-05-10T06:37:41;20.24;40.80
68804;SHT31;55787;52.678;13.314;2023-05-10T06:40:08;20.90;39.49
68804;SHT31;55787;52.678;13.314;2023-05-10T06:42:35;20.93;38.93
68804;SHT31;55787;52.678;13.314;2023-05-10T06:45:02;20.94;39.09
68804;SHT31;55787;52.678;13.314;2023-05-10T06:47:29;21.47;38.85
68804;SHT31;55787;52.678;13.314;2023-05-10T06:49:55;21.58;38.90
68804;SHT31;55787;52.678;13.314;2023-05-10T06:52:22;22.48;37.02
68804;SHT31;55787;52.678;13.314;2023-05-10T06:54:49;21.85;37.91
68804;SHT31;55787;52.678;13.314;2023-05-10T06:57:16;21.83;38.70
68804;SHT31;55787;52.678;13.314;2023-05-10T07:00:00;21.93;37.91
68804;SHT31;55787;52.678;13.314;2023-05-10T07:02:27;21.00;39.70
68804;SHT31;55787;52.678;13.314;2023-05-10T07:04:54;22.08;37.90
68804;SHT31;55787;52.678;13.314;2023-05-10T07:07:21;22.08;38.10
68804;SHT31;55787;52.678;13.314;2023-05-10T07:09:48;21.61;37.76
68804;SHT31;55787;52.678;13.314;2023-05-10T07:12:16;21.93;38.55
68804;SHT31;55787;52.678;13.314;2023-05-10T07:14:43;21.96;37.39
68804;SHT31;55787;52.678;13.314;2023-05-10T07:17:09;21.15;39.24
68804;SHT31;55787;52.678;13.314;2023-05-10T07:19:36;22.35;37.70
68804;SHT31;55787;52.678;13.314;2023-05-10T07:22:03;23.11;36.19
68804;SHT31;55787;52.678;13.314;2023-05-10T07:24:30;23.20;36.16
68804;SHT31;55787;52.678;13.314;2023-05-10T07:26:57;24.08;35.15
68804;SHT31;55787;52.678;13.314;2023-05-10T07:29:24;24.14;34.68
68804;SHT31;55787;52.678;13.314;2023-05-10T07:31:51;24.71;33.67
68804;SHT31;55787;52.678;13.314;2023-05-10T07:34:18;23.45;34.82
68804;SHT31;55787;52.678;13.314;2023-05-10T07:36:44;23.65;35.22
68804;SHT31;55787;52.678;13.314;2023-05-10T07:39:11;24.38;33.99
68804;SHT31;55787;52.678;13.314;2023-05-10T07:41:50;23.97;35.33
68804;SHT31;55787;52.678;13.314;2023-05-10T07:44:16;24.80;33.78
68804;SHT31;55787;52.678;13.314;2023-05-10T07:46:45;24.14;34.19
68804;SHT31;55787;52.678;13.314;2023-05-10T07:49:12;24.87;34.61
68804;SHT31;55787;52.678;13.314;2023-05-10T07:51:39;25.26;33.87
68804;SHT31;55787;52.678;13.314;2023-05-10T07:54:06;25.80;32.59
68804;SHT31;55787;52.678;13.314;2023-05-10T07:56:32;25.99;31.99
68804;SHT31;55787;52.678;13.314;2023-05-10T07:58:59;26.29;31.91
68804;SHT31;55787;52.678;13.314;2023-05-10T08:01:30;26.77;32.13
68804;SHT31;55787;52.678;13.314;2023-05-10T08:03:57;25.65;32.84
68804;SHT31;55787;52.678;13.314;2023-05-10T08:06:24;25.20;32.71
68804;SHT31;55787;52.678;13.314;2023-05-10T08:08:53;25.94;32.51
68804;SHT31;55787;52.678;13.314;2023-05-10T08:11:20;24.89;33.51
68804;SHT31;55787;52.678;13.314;2023-05-10T08:13:49;25.67;32.74
68804;SHT31;55787;52.678;13.314;2023-05-10T08:16:16;24.76;33.93
68804;SHT31;55787;52.678;13.314;2023-05-10T08:18:44;26.21;33.41
68804;SHT31;55787;52.678;13.314;2023-05-10T08:21:15;26.53;31.70
68804;SHT31;55787;52.678;13.314;2023-05-10T08:23:42;26.90;30.99
68804;SHT31;55787;52.678;13.314;2023-05-10T08:26:10;27.15;31.05
68804;SHT31;55787;52.678;13.314;2023-05-10T08:28:37;27.70;29.81
68804;SHT31;55787;52.678;13.314;2023-05-10T08:31:04;27.73;30.55
68804;SHT31;55787;52.678;13.314;2023-05-10T08:33:31;27.86;30.13
68804;SHT31;55787;52.678;13.314;2023-05-10T08:35:58;27.63;30.38
68804;SHT31;55787;52.678;13.314;2023-05-10T08:38:25;26.88;31.46
68804;SHT31;55787;52.678;13.314;2023-05-10T08:40:54;26.91;31.60
68804;SHT31;55787;52.678;13.314;2023-05-10T08:43:26;27.10;30.51
68804;SHT31;55787;52.678;13.314;2023-05-10T08:45:55;27.15;30.83
68804;SHT31;55787;52.678;13.314;2023-05-10T08:48:26;27.75;30.37
68804;SHT31;55787;52.678;13.314;2023-05-10T08:50:57;27.24;30.84
68804;SHT31;55787;52.678;13.314;2023-05-10T08:53:24;27.58;30.67
68804;SHT31;55787;52.678;13.314;2023-05-10T08:55:53;28.00;29.17
68804;SHT31;55787;52.678;13.314;2023-05-10T08:58:21;28.48;29.54
68804;SHT31;55787;52.678;13.314;2023-05-10T09:00:49;28.58;29.13
68804;SHT31;55787;52.678;13.314;2023-05-10T09:03:17;28.23;29.53
68804;SHT31;55787;52.678;13.314;2023-05-10T09:05:44;28.95;28.40
68804;SHT31;55787;52.678;13.314;2023-05-10T09:08:12;28.14;29.68
68804;SHT31;55787;52.678;13.314;2023-05-10T09:10:39;28.21;29.27
68804;SHT31;55787;52.678;13.314;2023-05-10T09:13:10;28.06;29.09
68804;SHT31;55787;52.678;13.314;2023-05-10T09:15:38;28.37;30.37
68804;SHT31;55787;52.678;13.314;2023-05-10T09:18:05;29.36;28.41
68804;SHT31;55787;52.678;13.314;2023-05-10T09:20:32;28.95;28.57
68804;SHT31;55787;52.678;13.314;2023-05-10T09:22:58;29.33;28.66
68804;SHT31;55787;52.678;13.314;2023-05-10T09:25:25;29.80;27.32
68804;SHT31;55787;52.678;13.314;2023-05-10T09:27:52;29.18;27.74
68804;SHT31;55787;52.678;13.314;2023-05-10T09:30:27;29.47;28.42
68804;SHT31;55787;52.678;13.314;2023-05-10T09:32:55;28.39;29.08
68804;SHT31;55787;52.678;13.314;2023-05-10T09:35:24;29.15;29.87
68804;SHT31;55787;52.678;13.314;2023-05-10T09:37:57;29.83;27.20
68804;SHT31;55787;52.678;13.314;2023-05-10T09:40:26;29.91;26.60
68804;SHT31;55787;52.678;13.314;2023-05-10T09:43:03;30.18;27.25
68804;SHT31;55787;52.678;13.314;2023-05-10T09:45:31;31.19;26.32
68804;SHT31;55787;52.678;13.314;2023-05-10T09:48:00;31.37;26.98
68804;SHT31;55787;52.678;13.314;2023-05-10T09:50:29;31.85;27.42
68804;SHT31;55787;52.678;13.314;2023-05-10T09:52:58;31.58;26.32
68804;SHT31;55787;52.678;13.314;2023-05-10T09:55:44;30.82;27.24
68804;SHT31;55787;52.678;13.314;2023-05-10T09:58:13;30.79;26.30
68804;SHT31;55787;52.678;13.314;2023-05-10T10:00:44;31.21;26.11
68804;SHT31;55787;52.678;13.314;2023-05-10T10:03:14;30.99;26.43
68804;SHT31;55787;52.678;13.314;2023-05-10T10:05:42;31.37;25.62
68804;SHT31;55787;52.678;13.314;2023-05-10T10:08:10;29.94;27.20
68804;SHT31;55787;52.678;13.314;2023-05-10T10:10:38;29.39;28.41
68804;SHT31;55787;52.678;13.314;2023-05-10T10:13:07;29.12;28.92
68804;SHT31;55787;52.678;13.314;2023-05-10T10:15:34;29.40;29.51
68804;SHT31;55787;52.678;13.314;2023-05-10T10:18:01;30.45;28.39
68804;SHT31;55787;52.678;13.314;2023-05-10T10:20:30;31.34;26.27
68804;SHT31;55787;52.678;13.314;2023-05-10T10:22:57;31.61;26.12
68804;SHT31;55787;52.678;13.314;2023-05-10T10:25:24;31.51;25.86
68804;SHT31;55787;52.678;13.314;2023-05-10T10:35:53;30.69;26.17
68804;SHT31;55787;52.678;13.314;2023-05-10T10:38:20;30.87;27.16
68804;SHT31;55787;52.678;13.314;2023-05-10T10:40:47;30.90;27.43
68804;SHT31;55787;52.678;13.314;2023-05-10T10:43:27;31.09;26.11
68804;SHT31;55787;52.678;13.314;2023-05-10T10:46:20;31.47;26.29
68804;SHT31;55787;52.678;13.314;2023-05-10T10:48:49;31.47;25.96
68804;SHT31;55787;52.678;13.314;2023-05-10T10:51:16;31.13;26.39
68804;SHT31;55787;52.678;13.314;2023-05-10T10:53:43;30.12;27.10
68804;SHT31;55787;52.678;13.314;2023-05-10T10:56:11;30.25;27.09
68804;SHT31;55787;52.678;13.314;2023-05-10T10:58:40;30.58;26.47
68804;SHT31;55787;52.678;13.314;2023-05-10T11:01:15;29.96;27.70
68804;SHT31;55787;52.678;13.314;2023-05-10T11:06:35;30.90;26.53
68804;SHT31;55787;52.678;13.314;2023-05-10T11:09:07;30.27;26.04
68804;SHT31;55787;52.678;13.314;2023-05-10T11:11:35;30.71;26.76
68804;SHT31;55787;52.678;13.314;2023-05-10T11:14:04;30.29;26.77
68804;SHT31;55787;52.678;13.314;2023-05-10T11:16:41;30.92;28.33
68804;SHT31;55787;52.678;13.314;2023-05-10T11:19:10;32.04;25.31
68804;SHT31;55787;52.678;13.314;2023-05-10T11:24:33;31.99;26.40
68804;SHT31;55787;52.678;13.314;2023-05-10T11:27:00;32.43;24.31
68804;SHT31;55787;52.678;13.314;2023-05-10T11:29:27;31.96;25.54
68804;SHT31;55787;52.678;13.314;2023-05-10T11:31:57;32.29;24.34
68804;SHT31;55787;52.678;13.314;2023-05-10T11:34:28;32.11;25.75
68804;SHT31;55787;52.678;13.314;2023-05-10T11:36:57;32.19;24.55
68804;SHT31;55787;52.678;13.314;2023-05-10T11:39:28;32.52;24.08
68804;SHT31;55787;52.678;13.314;2023-05-10T11:41:55;32.30;24.68
68804;SHT31;55787;52.678;13.314;2023-05-10T11:44:22;32.22;26.07
68804;SHT31;55787;52.678;13.314;2023-05-10T11:46:49;32.13;25.25
68804;SHT31;55787;52.678;13.314;2023-05-10T11:49:16;31.51;25.38
68804;SHT31;55787;52.678;13.314;2023-05-10T11:51:43;31.48;25.18
68804;SHT31;55787;52.678;13.314;2023-05-10T11:54:10;32.13;24.99
68804;SHT31;55787;52.678;13.314;2023-05-10T11:56:39;31.96;25.01
68804;SHT31;55787;52.678;13.314;2023-05-10T11:59:06;31.54;25.81
68804;SHT31;55787;52.678;13.314;2023-05-10T12:01:33;31.51;25.10
68804;SHT31;55787;52.678;13.314;2023-05-10T12:04:00;31.77;25.68
68804;SHT31;55787;52.678;13.314;2023-05-10T12:06:29;31.62;25.73
68804;SHT31;55787;52.678;13.314;2023-05-10T12:08:57;31.24;26.51
68804;SHT31;55787;52.678;13.314;2023-05-10T12:11:26;28.71;28.78
68804;SHT31;55787;52.678;13.314;2023-05-10T12:13:54;29.16;28.11
68804;SHT31;55787;52.678;13.314;2023-05-10T12:16:23;30.93;29.48
68804;SHT31;55787;52.678;13.314;2023-05-10T12:18:51;31.74;25.74
68804;SHT31;55787;52.678;13.314;2023-05-10T12:21:20;31.16;27.13
68804;SHT31;55787;52.678;13.314;2023-05-10T12:23:52;30.89;26.40
68804;SHT31;55787;52.678;13.314;2023-05-10T12:26:23;31.38;26.50
68804;SHT31;55787;52.678;13.314;2023-05-10T12:28:51;31.50;26.72
68804;SHT31;55787;52.678;13.314;2023-05-10T12:31:17;30.94;26.68
68804;SHT31;55787;52.678;13.314;2023-05-10T12:33:45;29.72;27.86
68804;SHT31;55787;52.678;13.314;2023-05-10T12:36:14;27.73;30.59
68804;SHT31;55787;52.678;13.314;2023-05-10T12:38:42;30.45;29.31
68804;SHT31;55787;52.678;13.314;2023-05-10T12:41:10;31.19;26.36
68804;SHT31;55787;52.678;13.314;2023-05-10T12:43:37;31.30;26.64
68804;SHT31;55787;52.678;13.314;2023-05-10T12:48:33;31.13;26.82
68804;SHT31;55787;52.678;13.314;2023-05-10T12:51:01;31.14;26.53
68804;SHT31;55787;52.678;13.314;2023-05-10T12:53:28;31.33;26.49
68804;SHT31;55787;52.678;13.314;2023-05-10T12:55:55;31.29;26.89
68804;SHT31;55787;52.678;13.314;2023-05-10T12:58:22;31.54;26.43
68804;SHT31;55787;52.678;13.314;2023-05-10T13:01:01;29.76;26.83
68804;SHT31;55787;52.678;13.314;2023-05-10T13:03:28;27.31;32.03
68804;SHT31;55787;52.678;13.314;2023-05-10T13:05:55;29.01;28.41
68804;SHT31;55787;52.678;13.314;2023-05-10T13:08:22;30.07;28.82
68804;SHT31;55787;52.678;13.314;2023-05-10T13:10:49;30.03;26.49
68804;SHT31;55787;52.678;13.314;2023-05-10T13:13:15;29.45;27.41
68804;SHT31;55787;52.678;13.314;2023-05-10T13:15:42;29.52;27.60
68804;SHT31;55787;52.678;13.314;2023-05-10T13:18:08;29.29;26.68
68804;SHT31;55787;52.678;13.314;2023-05-10T13:20:36;28.39;28.15
68804;SHT31;55787;52.678;13.314;2023-05-10T13:23:02;27.88;30.57
68804;SHT31;55787;52.678;13.314;2023-05-10T13:25:29;26.52;30.03
68804;SHT31;55787;52.678;13.314;2023-05-10T13:27:56;28.00;29.35
68804;SHT31;55787;52.678;13.314;2023-05-10T13:30:22;28.04;30.50
68804;SHT31;55787;52.678;13.314;2023-05-10T13:32:50;26.37;30.73
68804;SHT31;55787;52.678;13.314;2023-05-10T13:35:17;25.89;31.72
68804;SHT31;55787;52.678;13.314;2023-05-10T13:37:44;26.98;31.69
68804;SHT31;55787;52.678;13.314;2023-05-10T13:40:10;26.79;30.66
68804;SHT31;55787;52.678;13.314;2023-05-10T13:42:37;27.04;29.87
68804;SHT31;55787;52.678;13.314;2023-05-10T13:45:05;27.56;29.57
68804;SHT31;55787;52.678;13.314;2023-05-10T13:47:31;27.49;29.00
68804;SHT31;55787;52.678;13.314;2023-05-10T13:49:58;27.28;27.99
68804;SHT31;55787;52.678;13.314;2023-05-10T13:52:26;27.27;30.40
68804;SHT31;55787;52.678;13.314;2023-05-10T13:54:52;26.93;31.22
68804;SHT31;55787;52.678;13.314;2023-05-10T13:57:21;27.11;30.22
68804;SHT31;55787;52.678;13.314;2023-05-10T13:59:50;27.10;29.94
68804;SHT31;55787;52.678;13.314;2023-05-10T14:02:16;26.87;31.26
68804;SHT31;55787;52.678;13.314;2023-05-10T14:04:43;26.66;30.42
68804;SHT31;55787;52.678;13.314;2023-05-10T14:07:10;26.64;31.76
68804;SHT31;55787;52.678;13.314;2023-05-10T14:09:36;26.64;30.18
68804;SHT31;55787;52.678;13.314;2023-05-10T14:12:03;26.67;30.15
68804;SHT31;55787;52.678;13.314;2023-05-10T14:14:30;26.95;30.34
68804;SHT31;55787;52.678;13.314;2023-05-10T14:16:57;26.94;28.74
68804;SHT31;55787;52.678;13.314;2023-05-10T14:19:24;26.25;30.96
68804;SHT31;55787;52.678;13.314;2023-05-10T14:21:50;25.60;32.37
68804;SHT31;55787;52.678;13.314;2023-05-10T14:24:18;24.04;33.38
68804;SHT31;55787;52.678;13.314;2023-05-10T14:26:44;24.71;32.30
68804;SHT31;55787;52.678;13.314;2023-05-10T14:29:11;24.39;33.32
68804;SHT31;55787;52.678;13.314;2023-05-10T14:31:38;24.45;34.35
68804;SHT31;55787;52.678;13.314;2023-05-10T14:34:05;24.76;33.71
68804;SHT31;55787;52.678;13.314;2023-05-10T14:36:32;25.44;32.73
68804;SHT31;55787;52.678;13.314;2023-05-10T14:38:59;25.44;31.52
68804;SHT31;55787;52.678;13.314;2023-05-10T14:41:25;25.41;31.39
68804;SHT31;55787;52.678;13.314;2023-05-10T14:43:52;25.61;32.21
68804;SHT31;55787;52.678;13.314;2023-05-10T14:46:19;25.30;32.63
68804;SHT31;55787;52.678;13.314;2023-05-10T14:48:46;25.27;32.50
68804;SHT31;55787;52.678;13.314;2023-05-10T14:51:13;25.44;31.61
68804;SHT31;55787;52.678;13.314;2023-05-10T14:53:40;25.61;31.27
68804;SHT31;55787;52.678;13.314;2023-05-10T14:56:07;25.47;31.15
68804;SHT31;55787;52.678;13.314;2023-05-10T14:58:33;25.28;32.12
68804;SHT31;55787;52.678;13.314;2023-05-10T15:01:00;24.64;31.92
68804;SHT31;55787;52.678;13.314;2023-05-10T15:03:28;25.53;33.02
68804;SHT31;55787;52.678;13.314;2023-05-10T15:05:55;25.00;31.68
68804;SHT31;55787;52.678;13.314;2023-05-10T15:08:24;25.71;32.45
68804;SHT31;55787;52.678;13.314;2023-05-10T15:10:54;26.11;30.96
68804;SHT31;55787;52.678;13.314;2023-05-10T15:13:22;25.94;31.31
68804;SHT31;55787;52.678;13.314;2023-05-10T15:15:48;25.87;31.59
68804;SHT31;55787;52.678;13.314;2023-05-10T15:18:15;25.65;31.60
68804;SHT31;55787;52.678;13.314;2023-05-10T15:20:43;25.63;30.52
68804;SHT31;55787;52.678;13.314;2023-05-10T15:23:09;25.53;31.17
68804;SHT31;55787;52.678;13.314;2023-05-10T15:25:36;25.43;30.68
68804;SHT31;55787;52.678;13.314;2023-05-10T15:28:04;25.33;30.79
68804;SHT31;55787;52.678;13.314;2023-05-10T15:30:32;24.93;31.38
68804;SHT31;55787;52.678;13.314;2023-05-10T15:32:58;24.61;31.09
68804;SHT31;55787;52.678;13.314;2023-05-10T15:35:26;24.49;31.42
68804;SHT31;55787;52.678;13.314;2023-05-10T15:37:53;24.78;31.27
68804;SHT31;55787;52.678;13.314;2023-05-10T15:40:19;24.87;31.29
68804;SHT31;55787;52.678;13.314;2023-05-10T15:42:46;24.95;31.24
68804;SHT31;55787;52.678;13.314;2023-05-10T15:45:12;24.16;32.62
68804;SHT31;55787;52.678;13.314;2023-05-10T15:47:39;24.27;32.40
68804;SHT31;55787;52.678;13.314;2023-05-10T15:50:06;23.93;33.21
68804;SHT31;55787;52.678;13.314;2023-05-10T15:52:33;23.71;33.63
68804;SHT31;55787;52.678;13.314;2023-05-10T15:55:00;23.65;33.64